fecha-hora | temperatura | viento dirección-velocidad-rachas | humedad | presión

  • 11-04-2019 21:00:00 | 11.60°C | Norte-3.00 km/h - 9.00 km/h | 42.00% | 933.30 hPa
  • 11-04-2019 20:00:00 | 12.60°C | Nordeste-3.00 km/h - 15.00 km/h | 38.00% | 933.20 hPa
  • 11-04-2019 19:00:00 | 14.10°C | Noroeste-10.00 km/h - 22.00 km/h | 35.00% | 933.10 hPa
  • 11-04-2019 18:00:00 | 13.90°C | Norte-8.00 km/h - 19.00 km/h | 35.00% | 933.20 hPa
  • 11-04-2019 17:00:00 | 12.90°C | Noroeste-8.00 km/h - 20.00 km/h | 41.00% | 933.30 hPa
  • 11-04-2019 16:00:00 | 12.70°C | Norte-6.00 km/h - 23.00 km/h | 40.00% | 933.60 hPa
  • 11-04-2019 15:00:00 | 12.40°C | Noroeste-8.00 km/h - 18.00 km/h | 42.00% | 934.00 hPa
  • 11-04-2019 14:00:00 | 12.50°C | Noroeste-9.00 km/h - 19.00 km/h | 44.00% | 934.30 hPa
  • 11-04-2019 13:00:00 | 10.70°C | Oeste-6.00 km/h - 14.00 km/h | 56.00% | 934.70 hPa
  • 11-04-2019 12:00:00 | 9.50°C | Oeste-8.00 km/h - 13.00 km/h | 64.00% | 934.90 hPa
  • 11-04-2019 11:00:00 | 8.20°C | Sudoeste-5.00 km/h - 12.00 km/h | 68.00% | 934.80 hPa
  • 11-04-2019 10:00:00 | 6.00°C | Nordeste-2.00 km/h - 5.00 km/h | 80.00% | 934.70 hPa
  • 11-04-2019 09:00:00 | 3.40°C | Nordeste-2.00 km/h - 5.00 km/h | 89.00% | 934.70 hPa
  • 11-04-2019 08:00:00 | 1.60°C | Calma-0.00 km/h - 6.00 km/h | 93.00% | 934.20 hPa
  • 11-04-2019 07:00:00 | 2.00°C | Norte-3.00 km/h - 4.00 km/h | 92.00% | 933.90 hPa
  • 11-04-2019 06:00:00 | 2.10°C | Calma-0.00 km/h - 6.00 km/h | 91.00% | 933.90 hPa
  • 11-04-2019 05:00:00 | 2.40°C | Oeste-5.00 km/h - 8.00 km/h | 90.00% | 933.90 hPa
  • 11-04-2019 04:00:00 | 3.40°C | Oeste-4.00 km/h - 6.00 km/h | 89.00% | 933.60 hPa
  • 11-04-2019 03:00:00 | 4.30°C | Oeste-4.00 km/h - 6.00 km/h | 88.00% | 933.50 hPa
  • 11-04-2019 02:00:00 | 5.40°C | Norte-3.00 km/h - 10.00 km/h | 83.00% | 933.70 hPa
  • 11-04-2019 01:00:00 | 6.60°C | Norte-4.00 km/h - 17.00 km/h | 79.00% | 933.60 hPa
  • 11-04-2019 00:00:00 | 7.50°C | Nordeste-4.00 km/h - 17.00 km/h | 78.00% | 933.20 hPa
  • 10-04-2019 23:00:00 | 8.00°C | Nordeste-3.00 km/h - 11.00 km/h | 78.00% | 933.10 hPa
  • 10-04-2019 22:00:00 | 8.50°C | Norte-5.00 km/h - 18.00 km/h | 73.00% | 932.20 hPa
    • diseño web asturias Información sobre el estado de las mareas, altura de la marejada, temperatura del agua y otros datos de Gijón en Asturias.

      Surf Gijón